sensor_id;sensor_type;location;lat;lon;timestamp;temperature;humidity
64561;DHT22;50960;46.838;16.838;2022-11-18T00:02:17;8.60;99.90
64561;DHT22;50960;46.838;16.838;2022-11-18T00:04:44;8.70;99.90
64561;DHT22;50960;46.838;16.838;2022-11-18T00:07:10;8.60;99.90
64561;DHT22;50960;46.838;16.838;2022-11-18T00:09:36;8.60;99.90
64561;DHT22;50960;46.838;16.838;2022-11-18T00:12:03;8.60;99.90
64561;DHT22;50960;46.838;16.838;2022-11-18T00:14:48;8.60;99.90
64561;DHT22;50960;46.838;16.838;2022-11-18T00:17:14;8.60;99.90
64561;DHT22;50960;46.838;16.838;2022-11-18T00:19:40;8.60;99.90
64561;DHT22;50960;46.838;16.838;2022-11-18T00:22:09;8.60;99.90
64561;DHT22;50960;46.838;16.838;2022-11-18T00:24:36;8.70;99.90
64561;DHT22;50960;46.838;16.838;2022-11-18T00:27:02;8.70;99.90
64561;DHT22;50960;46.838;16.838;2022-11-18T00:29:29;8.50;99.90
64561;DHT22;50960;46.838;16.838;2022-11-18T00:31:57;8.50;99.90
64561;DHT22;50960;46.838;16.838;2022-11-18T00:34:24;8.60;99.90
64561;DHT22;50960;46.838;16.838;2022-11-18T00:36:50;8.60;99.90
64561;DHT22;50960;46.838;16.838;2022-11-18T00:39:18;8.70;99.90
64561;DHT22;50960;46.838;16.838;2022-11-18T00:41:45;8.70;99.90
64561;DHT22;50960;46.838;16.838;2022-11-18T00:44:30;8.70;99.90
64561;DHT22;50960;46.838;16.838;2022-11-18T00:46:56;8.70;99.90
64561;DHT22;50960;46.838;16.838;2022-11-18T00:49:23;8.70;99.90
64561;DHT22;50960;46.838;16.838;2022-11-18T00:51:49;8.80;99.90
64561;DHT22;50960;46.838;16.838;2022-11-18T00:54:16;8.70;99.90
64561;DHT22;50960;46.838;16.838;2022-11-18T00:56:42;8.60;99.90
64561;DHT22;50960;46.838;16.838;2022-11-18T00:59:08;8.60;99.90
64561;DHT22;50960;46.838;16.838;2022-11-18T01:01:35;8.70;99.90
64561;DHT22;50960;46.838;16.838;2022-11-18T01:04:01;8.80;99.90
64561;DHT22;50960;46.838;16.838;2022-11-18T01:06:29;8.70;99.90
64561;DHT22;50960;46.838;16.838;2022-11-18T01:08:55;8.70;99.90
64561;DHT22;50960;46.838;16.838;2022-11-18T01:11:21;8.70;99.90
64561;DHT22;50960;46.838;16.838;2022-11-18T01:14:06;8.60;99.90
64561;DHT22;50960;46.838;16.838;2022-11-18T01:16:32;8.50;99.90
64561;DHT22;50960;46.838;16.838;2022-11-18T01:18:58;8.50;99.90
64561;DHT22;50960;46.838;16.838;2022-11-18T01:21:25;8.50;99.90
64561;DHT22;50960;46.838;16.838;2022-11-18T01:23:51;8.60;99.90
64561;DHT22;50960;46.838;16.838;2022-11-18T01:26:18;8.60;99.90
64561;DHT22;50960;46.838;16.838;2022-11-18T01:28:44;8.60;99.90
64561;DHT22;50960;46.838;16.838;2022-11-18T01:31:16;8.50;99.90
64561;DHT22;50960;46.838;16.838;2022-11-18T01:33:43;8.50;99.90
64561;DHT22;50960;46.838;16.838;2022-11-18T01:36:22;8.50;99.90
64561;DHT22;50960;46.838;16.838;2022-11-18T01:38:49;8.50;99.90
64561;DHT22;50960;46.838;16.838;2022-11-18T01:41:17;8.50;99.90
64561;DHT22;50960;46.838;16.838;2022-11-18T01:43:57;8.30;99.90
64561;DHT22;50960;46.838;16.838;2022-11-18T01:46:25;8.30;99.90
64561;DHT22;50960;46.838;16.838;2022-11-18T01:49:13;8.30;99.90
64561;DHT22;50960;46.838;16.838;2022-11-18T01:51:46;8.20;99.90
64561;DHT22;50960;46.838;16.838;2022-11-18T01:54:19;8.30;99.90
64561;DHT22;50960;46.838;16.838;2022-11-18T01:56:53;8.20;99.90
64561;DHT22;50960;46.838;16.838;2022-11-18T01:59:24;8.20;99.90
64561;DHT22;50960;46.838;16.838;2022-11-18T02:01:51;8.20;99.90
64561;DHT22;50960;46.838;16.838;2022-11-18T02:04:17;8.20;99.90
64561;DHT22;50960;46.838;16.838;2022-11-18T02:06:44;8.10;99.90
64561;DHT22;50960;46.838;16.838;2022-11-18T02:09:13;8.10;99.90
64561;DHT22;50960;46.838;16.838;2022-11-18T02:11:40;8.10;99.90
64561;DHT22;50960;46.838;16.838;2022-11-18T02:14:18;8.00;99.90
64561;DHT22;50960;46.838;16.838;2022-11-18T02:30:59;8.10;99.90
64561;DHT22;50960;46.838;16.838;2022-11-18T02:36:11;8.00;99.90
64561;DHT22;50960;46.838;16.838;2022-11-18T02:38:44;7.90;99.90
64561;DHT22;50960;46.838;16.838;2022-11-18T02:41:17;8.00;99.90
64561;DHT22;50960;46.838;16.838;2022-11-18T02:43:52;7.90;99.90
64561;DHT22;50960;46.838;16.838;2022-11-18T02:46:26;7.90;99.90
64561;DHT22;50960;46.838;16.838;2022-11-18T02:48:53;8.00;99.90
64561;DHT22;50960;46.838;16.838;2022-11-18T02:51:27;8.00;99.90
64561;DHT22;50960;46.838;16.838;2022-11-18T02:53:58;7.90;99.90
64561;DHT22;50960;46.838;16.838;2022-11-18T02:56:26;7.90;99.90
64561;DHT22;50960;46.838;16.838;2022-11-18T02:58:53;7.90;99.90
64561;DHT22;50960;46.838;16.838;2022-11-18T03:01:24;8.00;99.90
64561;DHT22;50960;46.838;16.838;2022-11-18T03:03:52;8.00;99.90
64561;DHT22;50960;46.838;16.838;2022-11-18T03:09:23;7.90;99.90
64561;DHT22;50960;46.838;16.838;2022-11-18T03:17:43;8.00;99.90
64561;DHT22;50960;46.838;16.838;2022-11-18T03:22:49;8.00;99.90
64561;DHT22;50960;46.838;16.838;2022-11-18T03:25:19;7.90;99.90
64561;DHT22;50960;46.838;16.838;2022-11-18T03:27:56;7.90;99.90
64561;DHT22;50960;46.838;16.838;2022-11-18T03:30:25;7.90;99.90
64561;DHT22;50960;46.838;16.838;2022-11-18T03:33:11;7.80;99.90
64561;DHT22;50960;46.838;16.838;2022-11-18T03:35:40;7.90;99.90
64561;DHT22;50960;46.838;16.838;2022-11-18T03:38:12;7.90;99.90
64561;DHT22;50960;46.838;16.838;2022-11-18T03:40:43;7.90;99.90
64561;DHT22;50960;46.838;16.838;2022-11-18T03:43:20;7.90;99.90
64561;DHT22;50960;46.838;16.838;2022-11-18T03:46:13;8.00;99.90
64561;DHT22;50960;46.838;16.838;2022-11-18T03:48:53;8.10;99.90
64561;DHT22;50960;46.838;16.838;2022-11-18T03:51:28;8.10;99.90
64561;DHT22;50960;46.838;16.838;2022-11-18T03:54:09;8.10;99.90
64561;DHT22;50960;46.838;16.838;2022-11-18T03:56:42;8.10;99.90
64561;DHT22;50960;46.838;16.838;2022-11-18T03:59:25;8.10;99.90
64561;DHT22;50960;46.838;16.838;2022-11-18T04:01:58;8.20;99.90
64561;DHT22;50960;46.838;16.838;2022-11-18T04:04:27;8.20;99.90
64561;DHT22;50960;46.838;16.838;2022-11-18T04:07:10;8.20;99.90
64561;DHT22;50960;46.838;16.838;2022-11-18T04:09:45;8.30;99.90
64561;DHT22;50960;46.838;16.838;2022-11-18T04:12:14;8.30;99.90
64561;DHT22;50960;46.838;16.838;2022-11-18T04:14:44;8.30;99.90
64561;DHT22;50960;46.838;16.838;2022-11-18T04:17:16;8.40;99.90
64561;DHT22;50960;46.838;16.838;2022-11-18T04:19:43;8.40;99.90
64561;DHT22;50960;46.838;16.838;2022-11-18T04:22:10;8.40;99.90
64561;DHT22;50960;46.838;16.838;2022-11-18T04:24:36;8.50;99.90
64561;DHT22;50960;46.838;16.838;2022-11-18T04:27:03;8.30;99.90
64561;DHT22;50960;46.838;16.838;2022-11-18T04:29:31;8.40;99.90
64561;DHT22;50960;46.838;16.838;2022-11-18T04:31:58;8.40;99.90
64561;DHT22;50960;46.838;16.838;2022-11-18T04:34:25;8.40;99.90
64561;DHT22;50960;46.838;16.838;2022-11-18T04:36:51;8.40;99.90
64561;DHT22;50960;46.838;16.838;2022-11-18T04:39:17;8.50;99.90
64561;DHT22;50960;46.838;16.838;2022-11-18T04:41:44;8.50;99.90
64561;DHT22;50960;46.838;16.838;2022-11-18T04:44:21;8.40;99.90
64561;DHT22;50960;46.838;16.838;2022-11-18T04:46:48;8.50;99.90
64561;DHT22;50960;46.838;16.838;2022-11-18T04:49:14;8.50;99.90
64561;DHT22;50960;46.838;16.838;2022-11-18T04:51:42;8.60;99.90
64561;DHT22;50960;46.838;16.838;2022-11-18T04:54:09;8.50;99.90
64561;DHT22;50960;46.838;16.838;2022-11-18T04:56:36;8.40;99.90
64561;DHT22;50960;46.838;16.838;2022-11-18T04:59:04;8.40;99.90
64561;DHT22;50960;46.838;16.838;2022-11-18T05:01:31;8.30;99.90
64561;DHT22;50960;46.838;16.838;2022-11-18T05:03:59;8.30;99.90
64561;DHT22;50960;46.838;16.838;2022-11-18T05:06:27;8.30;99.90
64561;DHT22;50960;46.838;16.838;2022-11-18T05:08:54;8.30;99.90
64561;DHT22;50960;46.838;16.838;2022-11-18T05:11:20;8.30;99.90
64561;DHT22;50960;46.838;16.838;2022-11-18T05:14:05;8.30;99.90
64561;DHT22;50960;46.838;16.838;2022-11-18T05:16:31;8.40;99.90
64561;DHT22;50960;46.838;16.838;2022-11-18T05:18:57;8.40;99.90
64561;DHT22;50960;46.838;16.838;2022-11-18T05:21:23;8.40;99.90
64561;DHT22;50960;46.838;16.838;2022-11-18T05:23:49;8.50;99.90
64561;DHT22;50960;46.838;16.838;2022-11-18T05:26:16;8.40;99.90
64561;DHT22;50960;46.838;16.838;2022-11-18T05:28:42;8.40;99.90
64561;DHT22;50960;46.838;16.838;2022-11-18T05:31:10;8.30;99.90
64561;DHT22;50960;46.838;16.838;2022-11-18T05:33:37;8.30;99.90
64561;DHT22;50960;46.838;16.838;2022-11-18T05:36:05;8.30;99.90
64561;DHT22;50960;46.838;16.838;2022-11-18T05:38:32;8.30;99.90
64561;DHT22;50960;46.838;16.838;2022-11-18T05:40:59;8.30;99.90
64561;DHT22;50960;46.838;16.838;2022-11-18T05:43:26;8.30;99.90
64561;DHT22;50960;46.838;16.838;2022-11-18T05:45:53;8.40;99.90
64561;DHT22;50960;46.838;16.838;2022-11-18T05:48:20;8.40;99.90
64561;DHT22;50960;46.838;16.838;2022-11-18T05:50:48;8.20;99.90
64561;DHT22;50960;46.838;16.838;2022-11-18T05:53:15;8.30;99.90
64561;DHT22;50960;46.838;16.838;2022-11-18T05:55:52;8.20;99.90
64561;DHT22;50960;46.838;16.838;2022-11-18T05:58:20;8.20;99.90
64561;DHT22;50960;46.838;16.838;2022-11-18T06:00:48;8.20;99.90
64561;DHT22;50960;46.838;16.838;2022-11-18T06:03:19;8.10;99.90
64561;DHT22;50960;46.838;16.838;2022-11-18T06:05:47;8.10;99.90
64561;DHT22;50960;46.838;16.838;2022-11-18T06:08:15;8.10;99.90
64561;DHT22;50960;46.838;16.838;2022-11-18T06:10:44;8.10;99.90
64561;DHT22;50960;46.838;16.838;2022-11-18T06:13:17;8.20;99.90
64561;DHT22;50960;46.838;16.838;2022-11-18T06:15:45;8.30;99.90
64561;DHT22;50960;46.838;16.838;2022-11-18T06:18:23;8.40;99.90
64561;DHT22;50960;46.838;16.838;2022-11-18T06:20:57;8.30;99.90
64561;DHT22;50960;46.838;16.838;2022-11-18T06:23:27;8.20;99.90
64561;DHT22;50960;46.838;16.838;2022-11-18T06:25:54;8.40;99.90
64561;DHT22;50960;46.838;16.838;2022-11-18T06:28:21;8.40;99.90
64561;DHT22;50960;46.838;16.838;2022-11-18T06:30:47;8.50;99.90
64561;DHT22;50960;46.838;16.838;2022-11-18T06:33:13;8.50;99.90
64561;DHT22;50960;46.838;16.838;2022-11-18T06:35:41;8.40;99.90
64561;DHT22;50960;46.838;16.838;2022-11-18T06:38:08;8.50;99.90
64561;DHT22;50960;46.838;16.838;2022-11-18T06:40:34;8.60;99.90
64561;DHT22;50960;46.838;16.838;2022-11-18T06:43:09;8.60;99.90
64561;DHT22;50960;46.838;16.838;2022-11-18T06:45:58;8.60;99.90
64561;DHT22;50960;46.838;16.838;2022-11-18T06:48:43;8.60;99.90
64561;DHT22;50960;46.838;16.838;2022-11-18T06:51:09;8.60;99.90
64561;DHT22;50960;46.838;16.838;2022-11-18T06:53:36;8.70;99.90
64561;DHT22;50960;46.838;16.838;2022-11-18T06:56:06;8.70;99.90
64561;DHT22;50960;46.838;16.838;2022-11-18T06:58:34;8.70;99.90
64561;DHT22;50960;46.838;16.838;2022-11-18T07:01:11;8.70;99.90
64561;DHT22;50960;46.838;16.838;2022-11-18T07:03:41;8.80;99.90
64561;DHT22;50960;46.838;16.838;2022-11-18T07:06:09;8.80;99.90
64561;DHT22;50960;46.838;16.838;2022-11-18T07:08:36;8.80;99.90
64561;DHT22;50960;46.838;16.838;2022-11-18T07:11:04;8.90;99.90
64561;DHT22;50960;46.838;16.838;2022-11-18T07:13:31;8.90;99.90
64561;DHT22;50960;46.838;16.838;2022-11-18T07:16:03;8.90;99.90
64561;DHT22;50960;46.838;16.838;2022-11-18T07:18:31;8.90;99.90
64561;DHT22;50960;46.838;16.838;2022-11-18T07:21:00;8.90;99.90
64561;DHT22;50960;46.838;16.838;2022-11-18T07:23:29;9.00;99.90
64561;DHT22;50960;46.838;16.838;2022-11-18T07:25:55;8.80;99.90
64561;DHT22;50960;46.838;16.838;2022-11-18T07:28:21;8.80;99.90
64561;DHT22;50960;46.838;16.838;2022-11-18T07:30:48;8.80;99.90
64561;DHT22;50960;46.838;16.838;2022-11-18T07:33:14;8.80;99.90
64561;DHT22;50960;46.838;16.838;2022-11-18T07:35:40;8.70;99.90
64561;DHT22;50960;46.838;16.838;2022-11-18T07:38:07;8.70;99.90
64561;DHT22;50960;46.838;16.838;2022-11-18T07:40:33;8.80;99.90
64561;DHT22;50960;46.838;16.838;2022-11-18T07:42:59;8.90;99.90
64561;DHT22;50960;46.838;16.838;2022-11-18T07:45:25;9.00;99.90
64561;DHT22;50960;46.838;16.838;2022-11-18T07:47:51;9.00;99.90
64561;DHT22;50960;46.838;16.838;2022-11-18T07:50:18;9.00;99.90
64561;DHT22;50960;46.838;16.838;2022-11-18T07:52:44;9.00;99.90
64561;DHT22;50960;46.838;16.838;2022-11-18T07:55:10;9.00;99.90
64561;DHT22;50960;46.838;16.838;2022-11-18T07:57:36;9.10;99.90
64561;DHT22;50960;46.838;16.838;2022-11-18T08:00:03;9.10;99.90
64561;DHT22;50960;46.838;16.838;2022-11-18T08:02:29;9.10;99.90
64561;DHT22;50960;46.838;16.838;2022-11-18T08:04:55;9.10;99.90
64561;DHT22;50960;46.838;16.838;2022-11-18T08:07:22;9.00;99.90
64561;DHT22;50960;46.838;16.838;2022-11-18T08:09:48;8.90;99.90
64561;DHT22;50960;46.838;16.838;2022-11-18T08:12:14;8.90;99.90
64561;DHT22;50960;46.838;16.838;2022-11-18T08:14:40;8.90;99.90
64561;DHT22;50960;46.838;16.838;2022-11-18T08:17:06;8.80;99.90
64561;DHT22;50960;46.838;16.838;2022-11-18T08:19:33;8.90;99.90
64561;DHT22;50960;46.838;16.838;2022-11-18T08:22:00;9.10;99.90
64561;DHT22;50960;46.838;16.838;2022-11-18T08:24:26;9.10;99.90
64561;DHT22;50960;46.838;16.838;2022-11-18T08:26:52;9.10;99.90
64561;DHT22;50960;46.838;16.838;2022-11-18T08:29:18;8.90;99.90
64561;DHT22;50960;46.838;16.838;2022-11-18T08:31:44;9.00;99.90
64561;DHT22;50960;46.838;16.838;2022-11-18T08:34:11;9.00;99.90
64561;DHT22;50960;46.838;16.838;2022-11-18T08:36:37;8.90;99.90
64561;DHT22;50960;46.838;16.838;2022-11-18T08:39:06;9.00;99.90
64561;DHT22;50960;46.838;16.838;2022-11-18T08:41:36;8.90;99.90
64561;DHT22;50960;46.838;16.838;2022-11-18T08:44:03;9.00;99.90
64561;DHT22;50960;46.838;16.838;2022-11-18T08:46:30;9.00;99.90
64561;DHT22;50960;46.838;16.838;2022-11-18T08:48:57;8.90;99.90
64561;DHT22;50960;46.838;16.838;2022-11-18T08:51:23;9.00;99.90
64561;DHT22;50960;46.838;16.838;2022-11-18T08:53:50;9.00;99.90
64561;DHT22;50960;46.838;16.838;2022-11-18T08:56:20;9.00;99.90
64561;DHT22;50960;46.838;16.838;2022-11-18T08:58:47;9.10;99.90
64561;DHT22;50960;46.838;16.838;2022-11-18T09:01:14;9.10;99.90
64561;DHT22;50960;46.838;16.838;2022-11-18T09:03:40;9.10;99.90
64561;DHT22;50960;46.838;16.838;2022-11-18T09:06:10;9.00;99.90
64561;DHT22;50960;46.838;16.838;2022-11-18T09:08:37;9.00;99.90
64561;DHT22;50960;46.838;16.838;2022-11-18T09:11:10;9.10;99.90
64561;DHT22;50960;46.838;16.838;2022-11-18T09:13:37;9.00;99.90
64561;DHT22;50960;46.838;16.838;2022-11-18T09:16:04;9.00;99.90
64561;DHT22;50960;46.838;16.838;2022-11-18T09:18:30;8.90;99.90
64561;DHT22;50960;46.838;16.838;2022-11-18T09:20:59;8.90;99.90
64561;DHT22;50960;46.838;16.838;2022-11-18T09:23:26;9.00;99.90
64561;DHT22;50960;46.838;16.838;2022-11-18T09:26:07;8.90;99.90
64561;DHT22;50960;46.838;16.838;2022-11-18T09:28:35;9.00;99.90
64561;DHT22;50960;46.838;16.838;2022-11-18T09:31:10;8.80;99.90
64561;DHT22;50960;46.838;16.838;2022-11-18T09:33:37;9.00;99.90
64561;DHT22;50960;46.838;16.838;2022-11-18T09:36:09;8.70;99.90
64561;DHT22;50960;46.838;16.838;2022-11-18T09:38:36;8.30;99.90
64561;DHT22;50960;46.838;16.838;2022-11-18T09:49:02;8.20;99.90
64561;DHT22;50960;46.838;16.838;2022-11-18T09:51:41;8.20;99.90
64561;DHT22;50960;46.838;16.838;2022-11-18T09:54:10;8.10;99.90
64561;DHT22;50960;46.838;16.838;2022-11-18T09:56:39;8.00;99.90
64561;DHT22;50960;46.838;16.838;2022-11-18T09:59:07;8.00;99.90
64561;DHT22;50960;46.838;16.838;2022-11-18T10:01:36;8.00;99.90
64561;DHT22;50960;46.838;16.838;2022-11-18T10:04:02;7.90;99.90
64561;DHT22;50960;46.838;16.838;2022-11-18T10:06:31;7.80;99.90
64561;DHT22;50960;46.838;16.838;2022-11-18T10:17:54;8.20;99.90
64561;DHT22;50960;46.838;16.838;2022-11-18T10:20:41;8.10;99.90
64561;DHT22;50960;46.838;16.838;2022-11-18T10:25:51;8.10;99.90
64561;DHT22;50960;46.838;16.838;2022-11-18T10:28:22;8.00;99.90
64561;DHT22;50960;46.838;16.838;2022-11-18T10:30:49;8.10;99.90
64561;DHT22;50960;46.838;16.838;2022-11-18T10:33:26;8.20;99.90
64561;DHT22;50960;46.838;16.838;2022-11-18T10:36:10;8.20;99.90
64561;DHT22;50960;46.838;16.838;2022-11-18T10:38:38;8.30;99.90
64561;DHT22;50960;46.838;16.838;2022-11-18T10:41:07;8.40;99.90
64561;DHT22;50960;46.838;16.838;2022-11-18T10:46:29;8.10;99.90
64561;DHT22;50960;46.838;16.838;2022-11-18T10:51:35;8.00;99.90
64561;DHT22;50960;46.838;16.838;2022-11-18T10:54:17;8.10;99.90
64561;DHT22;50960;46.838;16.838;2022-11-18T10:56:54;8.20;99.90
64561;DHT22;50960;46.838;16.838;2022-11-18T11:02:29;8.30;99.90
64561;DHT22;50960;46.838;16.838;2022-11-18T11:05:00;8.40;99.90
64561;DHT22;50960;46.838;16.838;2022-11-18T11:07:35;8.50;99.90
64561;DHT22;50960;46.838;16.838;2022-11-18T11:12:39;8.70;99.90
64561;DHT22;50960;46.838;16.838;2022-11-18T11:15:36;8.90;99.90
64561;DHT22;50960;46.838;16.838;2022-11-18T11:18:15;8.60;99.90
64561;DHT22;50960;46.838;16.838;2022-11-18T11:21:01;8.50;99.90
64561;DHT22;50960;46.838;16.838;2022-11-18T11:23:29;8.50;99.90
64561;DHT22;50960;46.838;16.838;2022-11-18T11:26:33;8.50;99.90
64561;DHT22;50960;46.838;16.838;2022-11-18T11:29:22;8.50;99.90
64561;DHT22;50960;46.838;16.838;2022-11-18T11:51:53;8.50;99.90
64561;DHT22;50960;46.838;16.838;2022-11-18T11:57:04;8.50;99.90
64561;DHT22;50960;46.838;16.838;2022-11-18T11:59:46;8.40;99.90
64561;DHT22;50960;46.838;16.838;2022-11-18T12:07:53;8.30;99.90
64561;DHT22;50960;46.838;16.838;2022-11-18T12:21:07;8.70;99.90
64561;DHT22;50960;46.838;16.838;2022-11-18T12:23:34;8.90;99.90
64561;DHT22;50960;46.838;16.838;2022-11-18T12:26:09;8.80;99.90
64561;DHT22;50960;46.838;16.838;2022-11-18T12:28:39;9.00;99.90
64561;DHT22;50960;46.838;16.838;2022-11-18T12:33:59;9.00;99.90
64561;DHT22;50960;46.838;16.838;2022-11-18T12:36:26;9.00;99.90
64561;DHT22;50960;46.838;16.838;2022-11-18T12:38:53;9.00;99.90
64561;DHT22;50960;46.838;16.838;2022-11-18T12:44:26;9.00;99.90
64561;DHT22;50960;46.838;16.838;2022-11-18T12:46:57;8.90;99.90
64561;DHT22;50960;46.838;16.838;2022-11-18T12:51:57;8.90;99.90
64561;DHT22;50960;46.838;16.838;2022-11-18T12:54:30;8.90;99.90
64561;DHT22;50960;46.838;16.838;2022-11-18T12:59:47;8.70;99.90
64561;DHT22;50960;46.838;16.838;2022-11-18T13:05:02;8.80;99.90
64561;DHT22;50960;46.838;16.838;2022-11-18T13:07:32;8.80;99.90
64561;DHT22;50960;46.838;16.838;2022-11-18T13:10:26;8.80;99.90
64561;DHT22;50960;46.838;16.838;2022-11-18T13:12:54;8.90;99.90
64561;DHT22;50960;46.838;16.838;2022-11-18T13:15:21;8.90;99.90
64561;DHT22;50960;46.838;16.838;2022-11-18T13:18:17;8.90;99.90
64561;DHT22;50960;46.838;16.838;2022-11-18T13:20:57;8.90;99.90
64561;DHT22;50960;46.838;16.838;2022-11-18T13:26:19;8.80;99.90
64561;DHT22;50960;46.838;16.838;2022-11-18T13:28:58;9.00;99.90
64561;DHT22;50960;46.838;16.838;2022-11-18T13:34:17;9.10;99.90
64561;DHT22;50960;46.838;16.838;2022-11-18T13:36:45;9.10;99.90
64561;DHT22;50960;46.838;16.838;2022-11-18T13:39:21;9.10;99.90
64561;DHT22;50960;46.838;16.838;2022-11-18T13:42:19;9.00;99.90
64561;DHT22;50960;46.838;16.838;2022-11-18T13:44:55;9.20;99.90
64561;DHT22;50960;46.838;16.838;2022-11-18T13:47:36;9.40;99.90
64561;DHT22;50960;46.838;16.838;2022-11-18T13:50:13;9.50;99.90
64561;DHT22;50960;46.838;16.838;2022-11-18T14:01:02;9.60;99.90
64561;DHT22;50960;46.838;16.838;2022-11-18T14:11:34;9.50;99.80
64561;DHT22;50960;46.838;16.838;2022-11-18T14:14:01;9.40;99.90
64561;DHT22;50960;46.838;16.838;2022-11-18T14:16:41;9.50;99.90
64561;DHT22;50960;46.838;16.838;2022-11-18T14:19:30;9.50;99.90
64561;DHT22;50960;46.838;16.838;2022-11-18T14:22:22;9.50;99.90
64561;DHT22;50960;46.838;16.838;2022-11-18T14:25:02;9.50;99.70
64561;DHT22;50960;46.838;16.838;2022-11-18T14:27:36;9.50;99.80
64561;DHT22;50960;46.838;16.838;2022-11-18T14:30:37;9.40;99.90
64561;DHT22;50960;46.838;16.838;2022-11-18T14:33:26;9.30;99.90
64561;DHT22;50960;46.838;16.838;2022-11-18T14:36:28;9.40;99.90
64561;DHT22;50960;46.838;16.838;2022-11-18T14:38:55;9.20;99.90
64561;DHT22;50960;46.838;16.838;2022-11-18T14:41:21;9.40;99.90
64561;DHT22;50960;46.838;16.838;2022-11-18T14:44:06;9.40;99.90
64561;DHT22;50960;46.838;16.838;2022-11-18T14:46:35;9.50;99.90
64561;DHT22;50960;46.838;16.838;2022-11-18T14:49:03;9.40;99.90
64561;DHT22;50960;46.838;16.838;2022-11-18T14:51:30;9.30;99.90
64561;DHT22;50960;46.838;16.838;2022-11-18T14:53:56;9.30;99.90
64561;DHT22;50960;46.838;16.838;2022-11-18T14:58:48;9.20;99.90
64561;DHT22;50960;46.838;16.838;2022-11-18T15:01:15;9.20;99.90
64561;DHT22;50960;46.838;16.838;2022-11-18T15:03:41;9.00;99.90
64561;DHT22;50960;46.838;16.838;2022-11-18T15:06:14;9.00;99.90
64561;DHT22;50960;46.838;16.838;2022-11-18T15:08:43;9.00;99.90
64561;DHT22;50960;46.838;16.838;2022-11-18T15:11:09;8.90;99.90
64561;DHT22;50960;46.838;16.838;2022-11-18T15:13:37;9.00;99.90
64561;DHT22;50960;46.838;16.838;2022-11-18T15:16:22;9.00;99.90
64561;DHT22;50960;46.838;16.838;2022-11-18T15:18:50;9.00;99.90
64561;DHT22;50960;46.838;16.838;2022-11-18T15:21:17;9.00;99.90
64561;DHT22;50960;46.838;16.838;2022-11-18T15:23:44;9.00;99.90
64561;DHT22;50960;46.838;16.838;2022-11-18T15:28:48;8.80;99.90
64561;DHT22;50960;46.838;16.838;2022-11-18T15:31:16;8.80;99.90
64561;DHT22;50960;46.838;16.838;2022-11-18T15:33:43;8.70;99.90
64561;DHT22;50960;46.838;16.838;2022-11-18T15:36:15;8.70;99.90
64561;DHT22;50960;46.838;16.838;2022-11-18T15:38:42;8.70;99.90
64561;DHT22;50960;46.838;16.838;2022-11-18T15:41:29;8.70;99.90
64561;DHT22;50960;46.838;16.838;2022-11-18T15:43:57;8.70;99.90
64561;DHT22;50960;46.838;16.838;2022-11-18T15:46:25;8.70;99.90
64561;DHT22;50960;46.838;16.838;2022-11-18T15:48:56;8.70;99.90
64561;DHT22;50960;46.838;16.838;2022-11-18T15:51:23;8.70;99.90
64561;DHT22;50960;46.838;16.838;2022-11-18T15:53:50;8.70;99.90
64561;DHT22;50960;46.838;16.838;2022-11-18T16:01:23;8.70;99.90
64561;DHT22;50960;46.838;16.838;2022-11-18T16:03:49;8.60;99.90
64561;DHT22;50960;46.838;16.838;2022-11-18T16:06:15;8.60;99.90
64561;DHT22;50960;46.838;16.838;2022-11-18T16:08:42;8.70;99.90
64561;DHT22;50960;46.838;16.838;2022-11-18T16:11:11;8.60;99.90
64561;DHT22;50960;46.838;16.838;2022-11-18T16:14:05;8.70;99.90
64561;DHT22;50960;46.838;16.838;2022-11-18T16:16:32;8.70;99.90
64561;DHT22;50960;46.838;16.838;2022-11-18T16:19:00;8.70;99.90
64561;DHT22;50960;46.838;16.838;2022-11-18T16:21:28;8.70;99.90
64561;DHT22;50960;46.838;16.838;2022-11-18T16:23:58;8.70;99.90
64561;DHT22;50960;46.838;16.838;2022-11-18T16:26:26;8.70;99.90
64561;DHT22;50960;46.838;16.838;2022-11-18T16:28:53;8.70;99.90
64561;DHT22;50960;46.838;16.838;2022-11-18T16:31:19;8.70;99.90
64561;DHT22;50960;46.838;16.838;2022-11-18T16:36:39;8.70;99.90
64561;DHT22;50960;46.838;16.838;2022-11-18T16:39:08;8.70;99.90
64561;DHT22;50960;46.838;16.838;2022-11-18T16:41:35;8.70;99.90
64561;DHT22;50960;46.838;16.838;2022-11-18T16:44:07;8.70;99.90
64561;DHT22;50960;46.838;16.838;2022-11-18T16:46:35;8.70;99.90
64561;DHT22;50960;46.838;16.838;2022-11-18T16:49:03;8.70;99.90
64561;DHT22;50960;46.838;16.838;2022-11-18T16:51:32;8.70;99.90
64561;DHT22;50960;46.838;16.838;2022-11-18T16:54:01;8.60;99.90
64561;DHT22;50960;46.838;16.838;2022-11-18T16:56:31;8.60;99.90
64561;DHT22;50960;46.838;16.838;2022-11-18T16:59:03;8.60;99.90
64561;DHT22;50960;46.838;16.838;2022-11-18T17:01:30;8.60;99.90
64561;DHT22;50960;46.838;16.838;2022-11-18T17:03:58;8.50;99.90
64561;DHT22;50960;46.838;16.838;2022-11-18T17:06:29;8.70;99.90
64561;DHT22;50960;46.838;16.838;2022-11-18T17:08:57;8.70;99.90
64561;DHT22;50960;46.838;16.838;2022-11-18T17:11:24;8.40;99.90
64561;DHT22;50960;46.838;16.838;2022-11-18T17:13:50;8.50;99.90
64561;DHT22;50960;46.838;16.838;2022-11-18T17:16:18;8.50;99.90
64561;DHT22;50960;46.838;16.838;2022-11-18T17:18:45;8.60;99.90
64561;DHT22;50960;46.838;16.838;2022-11-18T17:21:15;8.50;99.90
64561;DHT22;50960;46.838;16.838;2022-11-18T17:23:45;8.50;99.90
64561;DHT22;50960;46.838;16.838;2022-11-18T17:26:14;8.40;99.90
64561;DHT22;50960;46.838;16.838;2022-11-18T17:28:41;8.40;99.90
64561;DHT22;50960;46.838;16.838;2022-11-18T17:31:10;8.50;99.90
64561;DHT22;50960;46.838;16.838;2022-11-18T17:33:37;8.40;99.90
64561;DHT22;50960;46.838;16.838;2022-11-18T17:36:06;8.50;99.90
64561;DHT22;50960;46.838;16.838;2022-11-18T17:38:35;8.50;99.90
64561;DHT22;50960;46.838;16.838;2022-11-18T17:41:01;8.50;99.90
64561;DHT22;50960;46.838;16.838;2022-11-18T17:43:27;8.50;99.90
64561;DHT22;50960;46.838;16.838;2022-11-18T17:45:55;8.60;99.90
64561;DHT22;50960;46.838;16.838;2022-11-18T17:48:23;8.50;99.90
64561;DHT22;50960;46.838;16.838;2022-11-18T17:50:50;8.50;99.90
64561;DHT22;50960;46.838;16.838;2022-11-18T17:53:17;8.50;99.90
64561;DHT22;50960;46.838;16.838;2022-11-18T17:55:43;8.60;99.90
64561;DHT22;50960;46.838;16.838;2022-11-18T17:58:10;8.70;99.90
64561;DHT22;50960;46.838;16.838;2022-11-18T18:00:37;8.60;99.90
64561;DHT22;50960;46.838;16.838;2022-11-18T18:03:04;8.70;99.90
64561;DHT22;50960;46.838;16.838;2022-11-18T18:05:31;8.60;99.90
64561;DHT22;50960;46.838;16.838;2022-11-18T18:07:58;8.60;99.90
64561;DHT22;50960;46.838;16.838;2022-11-18T18:10:26;8.60;99.90
64561;DHT22;50960;46.838;16.838;2022-11-18T18:12:52;8.60;99.90
64561;DHT22;50960;46.838;16.838;2022-11-18T18:15:37;8.60;99.90
64561;DHT22;50960;46.838;16.838;2022-11-18T18:18:03;8.60;99.90